createdAt,value
2022-12-01T00:01:08.184Z,45.13
2022-12-01T00:03:35.127Z,48.95
2022-12-01T00:06:04.575Z,47.15
2022-12-01T00:08:31.811Z,38.92
2022-12-01T00:11:10.436Z,42.78
2022-12-01T00:13:37.108Z,43.90
2022-12-01T00:16:30.282Z,41.80
2022-12-01T00:18:57.576Z,42.42
2022-12-01T00:21:25.609Z,43.40
2022-12-01T00:23:56.053Z,44.58
2022-12-01T00:26:23.177Z,43.22
2022-12-01T00:28:51.281Z,40.53
2022-12-01T00:31:17.879Z,43.97
2022-12-01T00:33:44.312Z,41.30
2022-12-01T00:36:11.100Z,38.65
2022-12-01T00:38:38.104Z,41.80
2022-12-01T00:41:04.934Z,42.63
2022-12-01T00:43:31.483Z,44.97
2022-12-01T00:45:57.988Z,41.35
2022-12-01T00:48:24.471Z,43.38
2022-12-01T00:50:55.332Z,39.30
2022-12-01T00:53:22.417Z,37.25
2022-12-01T00:55:49.014Z,41.63
2022-12-01T00:58:15.492Z,40.85
2022-12-01T01:00:42.943Z,44.22
2022-12-01T01:03:10.078Z,36.80
2022-12-01T01:05:40.982Z,38.38
2022-12-01T01:08:08.902Z,43.25
2022-12-01T01:10:44.266Z,38.72
2022-12-01T01:13:12.269Z,44.45
2022-12-01T01:15:39.076Z,39.58
2022-12-01T01:18:06.523Z,36.50
2022-12-01T01:20:33.495Z,37.47
2022-12-01T01:22:59.900Z,35.35
2022-12-01T01:25:26.349Z,37.20
2022-12-01T01:27:52.783Z,39.85
2022-12-01T01:30:19.287Z,36.15
2022-12-01T01:32:45.772Z,41.13
2022-12-01T01:35:12.221Z,37.47
2022-12-01T01:37:38.642Z,40.42
2022-12-01T01:40:05.985Z,37.00
2022-12-01T01:42:32.416Z,36.92
2022-12-01T01:44:59.160Z,41.28
2022-12-01T01:47:36.058Z,44.03
2022-12-01T01:50:11.028Z,37.47
2022-12-01T01:52:44.439Z,40.38
2022-12-01T01:55:12.152Z,38.50
2022-12-01T01:57:39.305Z,38.25
2022-12-01T02:00:09.521Z,39.15
2022-12-01T02:02:40.517Z,41.97
2022-12-01T02:07:41.403Z,42.60
2022-12-01T02:10:11.028Z,45.28
2022-12-01T02:13:16.173Z,38.05
2022-12-01T02:16:09.946Z,33.28
2022-12-01T02:19:17.341Z,36.28
2022-12-01T02:22:10.936Z,46.97
2022-12-01T02:24:50.823Z,46.03
2022-12-01T02:27:28.549Z,50.08
2022-12-01T02:30:05.733Z,44.33
2022-12-01T02:32:51.076Z,39.92
2022-12-01T02:35:48.469Z,45.17
2022-12-01T02:38:25.229Z,48.38
2022-12-01T02:41:04.249Z,46.55
2022-12-01T02:43:59.741Z,45.05
2022-12-01T02:46:34.893Z,45.28
2022-12-01T02:49:07.788Z,44.05
2022-12-01T02:51:36.509Z,43.25
2022-12-01T02:54:05.104Z,46.42
2022-12-01T02:56:31.541Z,45.22
2022-12-01T02:58:57.956Z,45.03
2022-12-01T03:01:53.127Z,42.97
2022-12-01T03:04:39.359Z,40.60
2022-12-01T03:07:43.772Z,43.83
2022-12-01T03:10:29.340Z,45.95
2022-12-01T03:13:01.967Z,44.13
2022-12-01T03:15:57.587Z,42.78
2022-12-01T03:18:43.535Z,42.28
2022-12-01T03:21:17.621Z,40.80
2022-12-01T03:23:50.345Z,47.45
2022-12-01T03:26:20.216Z,44.08
2022-12-01T03:28:51.575Z,46.20
2022-12-01T03:31:23.370Z,43.33
2022-12-01T03:33:58.878Z,48.42
2022-12-01T03:36:30.267Z,48.85
2022-12-01T03:39:02.671Z,40.03
2022-12-01T03:41:36.604Z,41.90
2022-12-01T03:44:14.904Z,42.45
2022-12-01T03:46:55.253Z,40.35
2022-12-01T03:49:24.697Z,44.22
2022-12-01T03:52:09.392Z,42.17
2022-12-01T03:54:54.163Z,44.13
2022-12-01T03:57:51.919Z,40.95
2022-12-01T04:00:19.550Z,41.92
2022-12-01T04:02:46.405Z,44.40
2022-12-01T04:05:12.942Z,45.80
2022-12-01T04:07:40.164Z,42.20
2022-12-01T04:10:07.673Z,44.58
2022-12-01T04:12:34.528Z,44.47
2022-12-01T04:15:05.068Z,40.38
2022-12-01T04:17:31.971Z,43.47
2022-12-01T04:19:58.532Z,39.47
2022-12-01T04:22:25.477Z,49.83
2022-12-01T04:24:52.531Z,44.15
2022-12-01T04:27:20.279Z,48.25
2022-12-01T04:29:47.125Z,39.80
2022-12-01T04:32:13.859Z,46.67
2022-12-01T04:34:40.424Z,44.88
2022-12-01T04:37:07.369Z,42.85
2022-12-01T04:39:34.575Z,46.05
2022-12-01T04:42:01.381Z,40.53
2022-12-01T04:44:34.303Z,42.25
2022-12-01T04:47:01.644Z,40.60
2022-12-01T04:49:28.491Z,43.42
2022-12-01T04:51:55.072Z,44.00
2022-12-01T04:54:21.529Z,42.80
2022-12-01T04:56:48.344Z,44.63
2022-12-01T04:59:14.823Z,50.55
2022-12-01T05:01:41.543Z,44.60
2022-12-01T05:04:12.427Z,45.83
2022-12-01T05:06:39.419Z,47.08
2022-12-01T05:09:06.604Z,46.58
2022-12-01T05:11:33.961Z,45.92
2022-12-01T05:14:00.450Z,48.40
2022-12-01T05:16:31.878Z,44.83
2022-12-01T05:19:20.039Z,47.38
2022-12-01T05:21:48.213Z,44.72
2022-12-01T05:24:15.612Z,43.33
2022-12-01T05:26:43.382Z,46.33
2022-12-01T05:29:10.458Z,41.60
2022-12-01T05:31:36.970Z,41.92
2022-12-01T05:34:03.618Z,46.60
2022-12-01T05:36:30.096Z,43.88
2022-12-01T05:38:56.492Z,46.92
2022-12-01T05:41:23.028Z,43.47
2022-12-01T05:43:49.510Z,44.75
2022-12-01T05:46:16.015Z,51.30
2022-12-01T05:48:42.576Z,48.10
2022-12-01T05:51:11.432Z,53.95
2022-12-01T05:53:38.332Z,46.53
2022-12-01T05:56:05.551Z,41.05
2022-12-01T05:58:31.995Z,45.15
2022-12-01T06:00:58.555Z,53.10
2022-12-01T06:03:25.016Z,43.40
2022-12-01T06:05:51.787Z,45.50
2022-12-01T06:08:18.340Z,45.30
2022-12-01T06:10:45.876Z,50.65
2022-12-01T06:13:12.333Z,43.92
2022-12-01T06:15:38.728Z,48.22
2022-12-01T06:18:05.583Z,48.53
2022-12-01T06:20:32.824Z,44.97
2022-12-01T06:22:59.771Z,50.90
2022-12-01T06:25:26.149Z,48.20
2022-12-01T06:27:57.533Z,48.30
2022-12-01T06:30:24.671Z,47.15
2022-12-01T06:32:51.116Z,45.08
2022-12-01T06:35:17.689Z,47.22
2022-12-01T06:37:44.449Z,51.63
2022-12-01T06:40:11.504Z,48.58
2022-12-01T06:42:37.937Z,50.13
2022-12-01T06:45:04.714Z,51.70
2022-12-01T06:47:31.264Z,53.25
2022-12-01T06:49:57.716Z,51.33
2022-12-01T06:52:24.225Z,44.53
2022-12-01T06:54:50.644Z,49.78
2022-12-01T06:57:17.426Z,48.17
2022-12-01T06:59:44.119Z,46.53
2022-12-01T07:02:11.869Z,43.95
2022-12-01T07:04:38.370Z,44.15
2022-12-01T07:07:06.247Z,46.00
2022-12-01T07:09:32.753Z,54.88
2022-12-01T07:11:59.309Z,53.53
2022-12-01T07:14:27.009Z,49.85
2022-12-01T07:16:54.104Z,48.47
2022-12-01T07:19:20.696Z,47.25
2022-12-01T07:21:47.229Z,50.35
2022-12-01T07:24:13.778Z,49.40
2022-12-01T07:26:41.309Z,55.35
2022-12-01T07:29:09.313Z,53.13
2022-12-01T07:31:38.388Z,50.67
2022-12-01T07:34:05.609Z,58.20
2022-12-01T07:36:32.109Z,51.95
2022-12-01T07:38:58.604Z,57.50
2022-12-01T07:41:25.408Z,57.38
2022-12-01T07:43:51.956Z,51.40
2022-12-01T07:46:23.711Z,56.90
2022-12-01T07:48:51.600Z,53.38
2022-12-01T07:51:18.193Z,62.03
2022-12-01T07:53:46.894Z,59.83
2022-12-01T07:56:13.720Z,54.72
2022-12-01T07:58:40.256Z,57.03
2022-12-01T08:01:09.023Z,57.67
2022-12-01T08:03:36.489Z,50.30
2022-12-01T08:06:04.309Z,58.38
2022-12-01T08:08:32.658Z,59.67
2022-12-01T08:11:01.740Z,64.32
2022-12-01T08:13:30.081Z,53.40
2022-12-01T08:15:56.741Z,57.05
2022-12-01T08:18:23.812Z,53.22
2022-12-01T08:20:51.223Z,56.15
2022-12-01T08:23:17.649Z,54.97
2022-12-01T08:25:44.131Z,60.78
2022-12-01T08:28:10.607Z,58.75
2022-12-01T08:30:37.108Z,55.88
2022-12-01T08:33:03.661Z,49.60
2022-12-01T08:35:30.065Z,55.75
2022-12-01T08:37:56.466Z,62.17
2022-12-01T08:40:23.000Z,57.67
2022-12-01T08:42:51.950Z,57.40
2022-12-01T08:45:18.437Z,70.05
2022-12-01T08:47:44.899Z,59.03
2022-12-01T08:50:12.016Z,56.58
2022-12-01T08:52:38.500Z,57.15
2022-12-01T08:55:05.730Z,61.42
2022-12-01T08:57:32.654Z,59.03
2022-12-01T08:59:59.114Z,60.70
2022-12-01T09:02:25.627Z,58.55
2022-12-01T09:04:52.233Z,65.15
2022-12-01T09:07:26.157Z,60.67
2022-12-01T09:09:53.192Z,59.65
2022-12-01T09:12:19.926Z,55.08
2022-12-01T09:14:48.297Z,64.28
2022-12-01T09:17:16.659Z,61.63
2022-12-01T09:19:44.378Z,62.70
2022-12-01T09:22:12.042Z,58.35
2022-12-01T09:24:38.608Z,61.17
2022-12-01T09:27:05.704Z,63.83
2022-12-01T09:29:32.537Z,56.08
2022-12-01T09:32:00.417Z,66.65
2022-12-01T09:34:30.695Z,51.85
2022-12-01T09:36:58.580Z,53.35
2022-12-01T09:39:25.371Z,56.42
2022-12-01T09:41:54.671Z,61.45
2022-12-01T09:44:43.097Z,63.10
2022-12-01T09:47:19.194Z,60.17
2022-12-01T09:50:14.668Z,54.90
2022-12-01T09:52:48.424Z,58.67
2022-12-01T09:55:17.797Z,66.50
2022-12-01T09:57:47.963Z,60.58
2022-12-01T10:00:16.264Z,60.30
2022-12-01T10:02:50.937Z,63.95
2022-12-01T10:05:21.534Z,59.65
2022-12-01T10:07:50.086Z,54.83
2022-12-01T10:10:24.934Z,60.13
2022-12-01T10:12:51.376Z,60.55
2022-12-01T10:15:23.586Z,56.55
2022-12-01T10:18:32.656Z,59.17
2022-12-01T10:21:15.092Z,54.30
2022-12-01T10:24:06.345Z,57.10
2022-12-01T10:26:44.749Z,56.20
2022-12-01T10:29:16.358Z,59.80
2022-12-01T10:31:54.888Z,62.13
2022-12-01T10:34:24.376Z,51.47
2022-12-01T10:36:51.444Z,55.60
2022-12-01T10:39:25.418Z,62.67
2022-12-01T10:41:52.260Z,54.38
2022-12-01T10:44:19.027Z,51.25
2022-12-01T10:46:56.151Z,60.50
2022-12-01T10:49:39.116Z,49.67
2022-12-01T10:52:06.712Z,62.80
2022-12-01T10:54:36.960Z,55.88
2022-12-01T10:57:05.544Z,55.78
2022-12-01T10:59:40.887Z,56.50
2022-12-01T11:02:17.578Z,52.63
2022-12-01T11:04:52.526Z,54.00
2022-12-01T11:07:23.700Z,54.67
2022-12-01T11:10:05.227Z,58.92
2022-12-01T11:12:31.988Z,54.65
2022-12-01T11:14:59.067Z,54.22
2022-12-01T11:17:42.501Z,57.25
2022-12-01T11:22:50.776Z,58.42
2022-12-01T11:25:21.848Z,49.72
2022-12-01T11:27:54.224Z,55.88
2022-12-01T11:30:26.318Z,55.72
2022-12-01T11:33:04.208Z,53.53
2022-12-01T11:35:34.629Z,51.97
2022-12-01T11:38:28.919Z,46.33
2022-12-01T11:40:55.596Z,52.08
2022-12-01T11:43:29.563Z,58.17
2022-12-01T11:45:58.657Z,56.35
2022-12-01T11:48:27.927Z,51.50
2022-12-01T11:51:00.084Z,53.40
2022-12-01T11:53:32.785Z,52.95
2022-12-01T11:56:25.036Z,51.22
2022-12-01T11:59:00.396Z,50.80
2022-12-01T12:01:40.913Z,52.17
2022-12-01T12:04:22.593Z,51.08
2022-12-01T12:07:30.650Z,54.38
2022-12-01T12:10:18.468Z,51.42
2022-12-01T12:13:20.829Z,49.05
2022-12-01T12:16:03.955Z,52.17
2022-12-01T12:18:36.430Z,44.65
2022-12-01T12:21:21.025Z,46.42
2022-12-01T12:24:45.171Z,45.65
2022-12-01T12:27:30.238Z,47.50
2022-12-01T12:30:18.454Z,48.85
2022-12-01T12:32:47.884Z,49.00
2022-12-01T12:35:25.906Z,51.92
2022-12-01T12:38:24.351Z,46.40
2022-12-01T12:41:29.648Z,41.78
2022-12-01T12:44:14.727Z,46.33
2022-12-01T12:46:59.840Z,43.20
2022-12-01T12:49:44.381Z,41.03
2022-12-01T12:52:19.310Z,45.00
2022-12-01T12:55:03.006Z,29.67
2022-12-01T12:57:34.731Z,41.40
2022-12-01T13:00:13.880Z,45.92
2022-12-01T13:02:53.481Z,38.55
2022-12-01T13:05:31.451Z,41.38
2022-12-01T13:08:32.050Z,37.30
2022-12-01T13:11:16.219Z,42.95
2022-12-01T13:14:01.019Z,39.20
2022-12-01T13:16:34.996Z,37.72
2022-12-01T13:19:28.433Z,40.85
2022-12-01T13:21:55.757Z,44.72
2022-12-01T13:24:25.321Z,45.58
2022-12-01T13:26:57.667Z,39.83
2022-12-01T13:29:26.310Z,40.85
2022-12-01T13:31:54.490Z,43.17
2022-12-01T13:34:44.368Z,45.28
2022-12-01T13:37:11.124Z,41.28
2022-12-01T13:39:40.179Z,38.45
2022-12-01T13:42:06.750Z,39.53
2022-12-01T13:44:41.362Z,42.38
2022-12-01T13:47:10.643Z,39.17
2022-12-01T13:49:40.794Z,44.13
2022-12-01T13:52:22.494Z,39.30
2022-12-01T13:55:01.198Z,40.22
2022-12-01T13:57:30.895Z,38.83
2022-12-01T14:00:00.457Z,38.53
2022-12-01T14:02:31.144Z,40.40
2022-12-01T14:05:43.365Z,38.20
2022-12-01T14:08:29.636Z,39.28
2022-12-01T14:11:16.546Z,25.17
2022-12-01T14:14:00.697Z,35.70
2022-12-01T14:16:47.638Z,34.47
2022-12-01T14:19:34.701Z,40.17
2022-12-01T14:22:02.124Z,34.67
2022-12-01T14:24:36.397Z,37.92
2022-12-01T14:27:05.464Z,43.33
2022-12-01T14:29:42.393Z,38.90
2022-12-01T14:32:09.037Z,43.75
2022-12-01T14:34:39.395Z,34.08
2022-12-01T14:37:13.433Z,37.42
2022-12-01T14:40:03.807Z,35.33
2022-12-01T14:43:05.531Z,37.38
2022-12-01T14:45:49.241Z,34.58
2022-12-01T14:48:21.923Z,36.38
2022-12-01T14:50:55.223Z,37.60
2022-12-01T14:53:29.227Z,35.38
2022-12-01T14:55:59.188Z,36.38
2022-12-01T14:58:30.977Z,37.20
2022-12-01T15:01:07.537Z,38.92
2022-12-01T15:03:57.736Z,36.58
2022-12-01T15:06:26.357Z,33.15
2022-12-01T15:09:33.432Z,38.67
2022-12-01T15:12:03.899Z,42.95
2022-12-01T15:14:36.477Z,32.50
2022-12-01T15:17:05.644Z,36.58
2022-12-01T15:19:34.357Z,36.03
2022-12-01T15:22:05.969Z,39.45
2022-12-01T15:24:33.993Z,40.35
2022-12-01T15:27:03.997Z,40.28
2022-12-01T15:29:37.143Z,39.78
2022-12-01T15:32:12.257Z,36.97
2022-12-01T15:34:42.445Z,53.10
2022-12-01T15:37:18.230Z,61.17
2022-12-01T15:39:52.762Z,41.17
2022-12-01T15:42:33.928Z,41.17
2022-12-01T15:45:18.040Z,47.58
2022-12-01T15:47:47.919Z,39.10
2022-12-01T15:50:33.585Z,40.33
2022-12-01T15:53:03.790Z,37.50
2022-12-01T15:55:33.289Z,35.13
2022-12-01T15:58:00.284Z,37.75
2022-12-01T16:00:26.969Z,39.67
2022-12-01T16:02:56.772Z,35.90
2022-12-01T16:05:32.685Z,35.67
2022-12-01T16:08:14.289Z,36.72
2022-12-01T16:10:40.869Z,40.67
2022-12-01T16:13:41.451Z,37.53
2022-12-01T16:16:39.072Z,35.75
2022-12-01T16:19:11.586Z,38.38
2022-12-01T16:21:51.289Z,40.22
2022-12-01T16:24:36.901Z,31.60
2022-12-01T16:27:06.585Z,37.50
2022-12-01T16:29:53.117Z,35.45
2022-12-01T16:32:40.476Z,38.63
2022-12-01T16:35:30.357Z,37.72
2022-12-01T16:37:58.134Z,35.55
2022-12-01T16:40:25.196Z,36.28
2022-12-01T16:42:51.681Z,33.90
2022-12-01T16:45:19.284Z,45.13
2022-12-01T16:47:47.887Z,39.63
2022-12-01T16:50:15.943Z,35.90
2022-12-01T16:52:44.543Z,38.35
2022-12-01T16:55:41.168Z,37.10
2022-12-01T16:58:10.356Z,38.53
2022-12-01T17:00:36.809Z,37.58
2022-12-01T17:03:04.437Z,37.63
2022-12-01T17:05:31.147Z,39.90
2022-12-01T17:07:58.068Z,40.08
2022-12-01T17:10:24.575Z,40.42
2022-12-01T17:12:51.690Z,47.15
2022-12-01T17:15:18.277Z,53.38
2022-12-01T17:17:44.816Z,54.55
2022-12-01T17:20:11.846Z,43.83
2022-12-01T17:22:38.494Z,48.70
2022-12-01T17:25:05.651Z,47.42
2022-12-01T17:27:32.782Z,50.42
2022-12-01T17:30:00.214Z,46.55
2022-12-01T17:32:29.576Z,47.83
2022-12-01T17:34:56.050Z,46.55
2022-12-01T17:37:22.725Z,47.22
2022-12-01T17:39:50.300Z,41.42
2022-12-01T17:42:17.224Z,38.80
2022-12-01T17:44:43.687Z,41.90
2022-12-01T17:47:10.190Z,41.50
2022-12-01T17:49:36.828Z,42.92
2022-12-01T17:52:09.362Z,40.58
2022-12-01T17:54:35.779Z,47.45
2022-12-01T17:57:02.346Z,42.53
2022-12-01T17:59:28.789Z,47.08
2022-12-01T18:01:55.500Z,42.97
2022-12-01T18:04:22.146Z,40.28
2022-12-01T18:06:53.732Z,43.45
2022-12-01T18:09:21.004Z,40.90
2022-12-01T18:11:47.530Z,53.22
2022-12-01T18:14:17.618Z,47.65
2022-12-01T18:16:45.318Z,47.00
2022-12-01T18:19:12.513Z,46.78
2022-12-01T18:21:39.854Z,46.50
2022-12-01T18:24:08.959Z,40.42
2022-12-01T18:26:37.352Z,36.67
2022-12-01T18:29:16.180Z,44.20
2022-12-01T18:31:43.185Z,49.22
2022-12-01T18:34:11.141Z,45.65
2022-12-01T18:36:41.233Z,37.60
2022-12-01T18:39:09.222Z,41.80
2022-12-01T18:41:36.454Z,43.13
2022-12-01T18:44:03.724Z,41.92
2022-12-01T18:46:30.600Z,50.33
2022-12-01T18:49:01.864Z,53.28
2022-12-01T18:51:33.757Z,68.38
2022-12-01T18:54:02.271Z,74.70
2022-12-01T18:56:29.417Z,75.75
2022-12-01T18:59:05.249Z,57.05
2022-12-01T19:01:36.131Z,55.88
2022-12-01T19:04:04.338Z,53.67
2022-12-01T19:06:32.327Z,52.97
2022-12-01T19:09:00.508Z,47.78
2022-12-01T19:11:27.695Z,47.15
2022-12-01T19:13:55.970Z,45.42
2022-12-01T19:16:22.964Z,44.33
2022-12-01T19:18:49.726Z,42.90
2022-12-01T19:21:18.580Z,50.10
2022-12-01T19:23:49.118Z,49.97
2022-12-01T19:26:18.420Z,47.83
2022-12-01T19:28:45.681Z,51.25
2022-12-01T19:31:18.954Z,50.45
2022-12-01T19:33:46.343Z,49.25
2022-12-01T19:36:16.114Z,44.33
2022-12-01T19:38:44.435Z,47.35
2022-12-01T19:41:12.657Z,47.47
2022-12-01T19:43:39.315Z,48.10
2022-12-01T19:46:07.984Z,48.53
2022-12-01T19:48:35.111Z,49.75
2022-12-01T19:51:02.043Z,51.28
2022-12-01T19:53:33.369Z,46.05
2022-12-01T19:56:05.101Z,45.75
2022-12-01T19:58:35.926Z,48.53
2022-12-01T20:01:07.802Z,42.10
2022-12-01T20:03:34.441Z,40.38
2022-12-01T20:06:05.236Z,51.38
2022-12-01T20:08:36.062Z,47.10
2022-12-01T20:11:04.319Z,55.17
2022-12-01T20:13:36.941Z,54.92
2022-12-01T20:16:12.670Z,47.17
2022-12-01T20:18:40.058Z,49.15
2022-12-01T20:21:18.938Z,45.58
2022-12-01T20:23:47.854Z,48.28
2022-12-01T20:26:16.053Z,46.63
2022-12-01T20:28:44.167Z,49.15
2022-12-01T20:31:17.648Z,45.08
2022-12-01T20:33:44.396Z,45.70
2022-12-01T20:36:10.941Z,56.80
2022-12-01T20:38:39.698Z,48.33
2022-12-01T20:41:07.307Z,54.80
2022-12-01T20:43:35.071Z,51.47
2022-12-01T20:46:02.675Z,53.03
2022-12-01T20:48:29.433Z,45.60
2022-12-01T20:50:55.985Z,52.42
2022-12-01T20:53:24.439Z,48.20
2022-12-01T20:55:52.401Z,46.58
2022-12-01T20:58:18.919Z,48.03
2022-12-01T21:00:47.936Z,47.67
2022-12-01T21:03:14.721Z,48.00
2022-12-01T21:05:45.968Z,50.95
2022-12-01T21:08:13.873Z,45.80
2022-12-01T21:10:44.679Z,48.03
2022-12-01T21:13:37.425Z,49.72
2022-12-01T21:16:12.378Z,46.38
2022-12-01T21:18:51.884Z,47.00
2022-12-01T21:21:27.603Z,46.30
2022-12-01T21:24:14.495Z,46.50
2022-12-01T21:26:45.830Z,49.67
2022-12-01T21:29:21.802Z,48.20
2022-12-01T21:31:51.740Z,45.38
2022-12-01T21:34:20.916Z,52.90
2022-12-01T21:36:52.509Z,45.90
2022-12-01T21:39:24.279Z,46.38
2022-12-01T21:41:55.920Z,48.13
2022-12-01T21:44:29.407Z,46.90
2022-12-01T21:46:57.863Z,45.72
2022-12-01T21:49:39.269Z,46.38
2022-12-01T21:52:19.517Z,51.25
2022-12-01T21:54:46.817Z,50.05
2022-12-01T21:57:36.164Z,48.53
2022-12-01T22:00:30.363Z,46.65
2022-12-01T22:03:09.042Z,45.78
2022-12-01T22:05:41.828Z,45.40
2022-12-01T22:08:22.280Z,50.13
2022-12-01T22:10:54.936Z,43.67
2022-12-01T22:13:24.995Z,47.30
2022-12-01T22:15:54.169Z,48.05
2022-12-01T22:18:32.285Z,52.10
2022-12-01T22:21:01.099Z,44.22
2022-12-01T22:23:35.877Z,42.65
2022-12-01T22:26:11.880Z,50.10
2022-12-01T22:28:38.385Z,43.30
2022-12-01T22:31:14.835Z,46.78
2022-12-01T22:33:41.288Z,50.45
2022-12-01T22:36:25.324Z,49.33
2022-12-01T22:38:52.011Z,54.67
2022-12-01T22:41:20.499Z,47.67
2022-12-01T22:43:57.291Z,46.60
2022-12-01T22:46:35.126Z,48.00
2022-12-01T22:49:10.695Z,45.28
2022-12-01T22:52:01.925Z,51.30
2022-12-01T22:54:39.671Z,48.13
2022-12-01T22:57:25.059Z,57.72
2022-12-01T22:59:52.252Z,49.78
2022-12-01T23:02:34.992Z,52.53
2022-12-01T23:05:23.989Z,59.78
2022-12-01T23:07:52.047Z,52.78
2022-12-01T23:10:33.623Z,58.03
2022-12-01T23:13:09.202Z,51.92
2022-12-01T23:15:38.888Z,53.72
2022-12-01T23:18:19.019Z,60.60
2022-12-01T23:20:54.016Z,57.20
2022-12-01T23:23:26.361Z,54.47
2022-12-01T23:25:53.057Z,53.50
2022-12-01T23:28:20.295Z,56.08
2022-12-01T23:30:49.792Z,61.95
2022-12-01T23:33:21.079Z,57.70
2022-12-01T23:35:50.800Z,62.45
2022-12-01T23:38:23.700Z,58.53
2022-12-01T23:40:52.542Z,58.85
2022-12-01T23:43:24.690Z,60.10
2022-12-01T23:46:16.186Z,59.03
2022-12-01T23:48:46.980Z,65.13
2022-12-01T23:51:19.818Z,67.70
2022-12-01T23:53:46.746Z,68.07
2022-12-01T23:56:20.233Z,61.88
2022-12-01T23:58:47.226Z,66.88
